Time;durP1;ratioP1;P1;durP2;ratioP2;P2;SDS_P1;SDS_P2;PMS_P1;PMS_P2;Temp;Humidity;BMP_temperature;BMP_pressure;BME280_temperature;BME280_humidity;BME280_pressure;Samples;Min_cycle;Max_cycle;Signal;HPM_P1;HPM_P2
2023/07/25 00:02:07;;;;;;;11.48;6.30;;;;;;;28.90;41.46;98712.03;4485352;32;34232;-59
2023/07/25 00:04:37;;;;;;;11.88;6.72;;;;;;;28.89;41.34;98676.66;4489403;31;33851;-60
2023/07/25 00:07:05;;;;;;;13.30;7.25;;;;;;;28.89;41.28;98629.97;4500732;31;34484;-60
2023/07/25 00:09:33;;;;;;;12.70;7.45;;;;;;;28.88;41.13;98637.41;4499576;31;34826;-58
2023/07/25 00:12:00;;;;;;;10.05;6.05;;;;;;;28.88;41.37;98637.41;4500571;31;34801;-58
2023/07/25 00:14:28;;;;;;;15.30;6.97;;;;;;;28.88;41.06;98631.91;4500947;31;33583;-60
2023/07/25 00:16:56;;;;;;;11.95;6.60;;;;;;;28.86;41.07;98633.28;4500650;31;33861;-59
2023/07/25 00:19:23;;;;;;;12.82;6.62;;;;;;;28.82;41.17;98635.81;4500616;31;33893;-59
2023/07/25 00:21:51;;;;;;;12.23;6.65;;;;;;;28.81;41.01;98652.56;4499442;31;34759;-60
2023/07/25 00:24:19;;;;;;;12.88;6.85;;;;;;;28.81;41.26;98660.81;4499416;31;33614;-60
2023/07/25 00:26:46;;;;;;;16.40;6.37;;;;;;;28.80;41.42;98657.25;4500614;31;35006;-60
2023/07/25 00:29:14;;;;;;;11.63;6.60;;;;;;;28.81;41.59;98660.81;4500658;31;34652;-60
2023/07/25 00:31:41;;;;;;;13.15;6.80;;;;;;;28.81;41.69;98667.09;4500492;31;34267;-58
2023/07/25 00:34:09;;;;;;;13.88;6.30;;;;;;;28.81;41.71;98671.78;4499178;31;33696;-60
2023/07/25 00:36:37;;;;;;;11.35;6.55;;;;;;;28.82;41.78;98687.97;4500521;31;33753;-60
2023/07/25 00:39:05;;;;;;;15.18;7.25;;;;;;;28.83;41.83;98705.28;4500665;31;33516;-60
2023/07/25 00:41:33;;;;;;;11.73;6.62;;;;;;;28.83;41.81;98719.81;4500479;31;34169;-59
2023/07/25 00:44:00;;;;;;;13.38;6.47;;;;;;;28.85;41.81;98733.25;4500635;31;33631;-60
2023/07/25 00:46:28;;;;;;;11.55;6.28;;;;;;;28.85;41.81;98749.72;4500504;31;33824;-59
2023/07/25 00:48:56;;;;;;;10.10;5.93;;;;;;;28.86;41.78;98756.84;4500556;31;33569;-60
2023/07/25 00:51:23;;;;;;;10.25;6.03;;;;;;;28.85;41.88;98769.75;4499566;31;34819;-60
2023/07/25 00:53:51;;;;;;;12.35;6.37;;;;;;;28.86;41.86;98773.31;4500387;31;33756;-60
2023/07/25 00:56:19;;;;;;;14.80;6.05;;;;;;;28.85;41.85;98786.22;4500348;31;33826;-59
2023/07/25 00:58:46;;;;;;;12.35;6.85;;;;;;;28.85;41.81;98801.88;4499260;31;35435;-59
2023/07/25 01:01:14;;;;;;;11.93;6.47;;;;;;;28.84;41.66;98828.53;4500341;31;33640;-60
2023/07/25 01:03:42;;;;;;;11.73;6.22;;;;;;;28.83;41.67;98824.16;4500441;31;33705;-61
2023/07/25 01:06:11;;;;;;;12.05;6.43;;;;;;;28.83;41.78;98826.91;4500526;31;33912;-61
2023/07/25 01:08:55;;;;;;;9.18;5.87;;;;;;;28.82;41.94;98827.16;4500193;31;34539;-61
2023/07/25 01:11:24;;;;;;;10.88;5.82;;;;;;;28.85;41.97;98830.16;4500676;31;35089;-58
2023/07/25 01:13:51;;;;;;;11.65;6.28;;;;;;;28.83;42.08;98821.41;4500079;31;33574;-59
2023/07/25 01:16:22;;;;;;;10.82;6.37;;;;;;;28.83;42.23;98835.13;4500584;31;33432;-60
2023/07/25 01:18:50;;;;;;;10.02;5.70;;;;;;;28.81;42.36;98842.81;4486246;31;34137;-60
2023/07/25 01:21:18;;;;;;;14.27;6.78;;;;;;;28.83;42.44;98848.84;4499055;31;34317;-59
2023/07/25 01:23:46;;;;;;;12.15;6.07;;;;;;;28.84;42.53;98830.44;4500279;31;33809;-61
2023/07/25 01:26:16;;;;;;;12.98;5.68;;;;;;;28.83;42.70;98820.59;4486043;31;34067;-59
2023/07/25 01:28:43;;;;;;;13.43;6.30;;;;;;;28.84;42.93;98808.50;4493729;31;33912;-58
2023/07/25 01:31:11;;;;;;;10.10;5.97;;;;;;;28.84;42.95;98798.31;4500031;31;34167;-60
2023/07/25 01:33:39;;;;;;;10.60;5.82;;;;;;;28.85;43.10;98802.69;4496830;31;34406;-61
2023/07/25 01:36:06;;;;;;;11.73;5.68;;;;;;;28.85;43.26;98799.13;4489227;31;33438;-59
2023/07/25 01:38:34;;;;;;;10.60;5.57;;;;;;;28.86;43.43;98767.81;4494706;31;34440;-59
2023/07/25 01:41:01;;;;;;;12.40;5.60;;;;;;;28.86;43.53;98745.84;4496493;31;34195;-59
2023/07/25 01:43:29;;;;;;;9.50;4.55;;;;;;;28.84;43.63;98710.47;4484129;32;33555;-60
2023/07/25 01:45:56;;;;;;;12.60;4.78;;;;;;;28.86;43.83;98701.94;4484343;32;33890;-60
2023/07/25 01:48:24;;;;;;;10.50;5.45;;;;;;;28.85;43.89;98708.53;4484277;32;33993;-59
2023/07/25 01:50:52;;;;;;;11.43;5.45;;;;;;;28.85;43.93;98694.81;4484176;32;34255;-60
2023/07/25 01:53:19;;;;;;;12.07;4.40;;;;;;;28.85;43.98;98659.94;4488475;31;33629;-60
2023/07/25 01:55:47;;;;;;;9.60;5.22;;;;;;;28.85;44.08;98637.97;4499981;31;34881;-59
2023/07/25 01:58:14;;;;;;;10.98;4.87;;;;;;;28.86;44.12;98611.31;4500103;31;33998;-58
2023/07/25 02:00:42;;;;;;;9.65;4.97;;;;;;;28.85;44.11;98607.75;4500193;31;34633;-59
2023/07/25 02:03:10;;;;;;;9.85;4.40;;;;;;;28.85;44.30;98607.75;4500210;31;33231;-59
2023/07/25 02:05:38;;;;;;;8.73;4.80;;;;;;;28.87;44.28;98632.22;4499780;31;33969;-58
2023/07/25 02:08:06;;;;;;;10.63;4.70;;;;;;;28.87;44.51;98608.31;4499231;31;34111;-59
2023/07/25 02:10:33;;;;;;;10.57;4.53;;;;;;;28.88;44.71;98631.09;4500011;31;34064;-60
2023/07/25 02:13:01;;;;;;;9.13;4.20;;;;;;;28.87;44.64;98633.03;4499699;31;33398;-60
2023/07/25 02:15:29;;;;;;;8.07;5.05;;;;;;;28.88;44.74;98672.28;4500146;31;33841;-60
2023/07/25 02:17:57;;;;;;;11.85;4.82;;;;;;;28.88;45.15;98678.59;4499730;31;34905;-61
2023/07/25 02:20:26;;;;;;;10.20;4.70;;;;;;;28.89;45.14;98696.69;4499670;31;34844;-60
2023/07/25 02:22:54;;;;;;;9.45;4.32;;;;;;;28.88;45.10;98711.53;4499783;31;33149;-60
2023/07/25 02:25:22;;;;;;;9.35;4.32;;;;;;;28.87;45.02;98709.91;4499680;31;33911;-60
2023/07/25 02:27:49;;;;;;;8.93;4.57;;;;;;;28.87;45.00;98690.69;4499500;31;34035;-59
2023/07/25 02:30:17;;;;;;;9.95;4.50;;;;;;;28.84;45.52;98595.16;4492427;31;34024;-61
2023/07/25 02:32:45;;;;;;;9.18;4.20;;;;;;;28.79;46.90;98512.03;4483755;32;33657;-60
2023/07/25 02:35:13;;;;;;;8.52;4.60;;;;;;;28.70;46.55;98550.28;4483670;32;33542;-61
2023/07/25 02:37:41;;;;;;;12.30;4.97;;;;;;;28.68;46.22;98534.12;4483902;32;34023;-61
2023/07/25 02:40:09;;;;;;;10.30;4.45;;;;;;;28.67;46.22;98488.56;4483686;32;34755;-60
2023/07/25 02:42:37;;;;;;;8.82;4.45;;;;;;;28.65;45.96;98488.03;4497353;31;32871;-60
2023/07/25 02:45:06;;;;;;;9.15;4.80;;;;;;;28.67;46.00;98485.00;4499451;31;33778;-61
2023/07/25 02:47:34;;;;;;;8.80;4.32;;;;;;;28.66;45.93;98480.62;4499330;31;33958;-60
2023/07/25 02:50:02;;;;;;;9.10;4.30;;;;;;;28.66;46.05;98497.09;4499369;31;34474;-61
2023/07/25 02:52:30;;;;;;;7.55;4.05;;;;;;;28.68;46.14;98511.34;4499371;31;34111;-61
2023/07/25 02:54:57;;;;;;;8.27;4.43;;;;;;;28.67;45.98;98520.69;4498034;31;33736;-60
2023/07/25 02:57:25;;;;;;;8.27;4.10;;;;;;;28.67;46.06;98516.00;4499496;31;33867;-61
2023/07/25 02:59:52;;;;;;;6.82;3.45;;;;;;;28.68;46.04;98534.12;4498068;31;34122;-58
2023/07/25 03:02:20;;;;;;;9.15;4.50;;;;;;;28.68;46.12;98541.53;4498911;31;33617;-61
2023/07/25 03:04:48;;;;;;;8.15;3.92;;;;;;;28.69;46.03;98562.38;4499207;31;33927;-60
2023/07/25 03:07:15;;;;;;;9.60;4.57;;;;;;;28.69;46.15;98568.69;4499238;31;34678;-59
2023/07/25 03:09:44;;;;;;;9.90;4.28;;;;;;;28.66;46.23;98569.25;4499240;31;34712;-60
2023/07/25 03:12:11;;;;;;;11.12;4.30;;;;;;;28.64;46.22;98567.94;4499049;31;34368;-60
2023/07/25 03:14:39;;;;;;;8.48;4.30;;;;;;;28.64;46.38;98578.91;4498873;31;33901;-60
2023/07/25 03:17:06;;;;;;;8.48;3.83;;;;;;;28.64;46.45;98582.47;4498857;31;35008;-59
2023/07/25 03:19:34;;;;;;;8.63;4.60;;;;;;;28.64;46.36;98578.91;4500058;31;34092;-60
2023/07/25 03:22:01;;;;;;;10.57;4.60;;;;;;;28.63;46.36;98583.59;4501405;31;33418;-60
2023/07/25 03:24:29;;;;;;;10.50;4.57;;;;;;;28.63;46.19;98567.13;4500976;31;34824;-59
2023/07/25 03:26:57;;;;;;;8.60;4.15;;;;;;;28.62;46.21;98568.22;4499803;31;34309;-59
2023/07/25 03:29:24;;;;;;;8.20;4.35;;;;;;;28.59;46.37;98587.22;4499610;31;34759;-60
2023/07/25 03:31:52;;;;;;;12.95;4.40;;;;;;;28.53;46.66;98599.31;4483742;32;33581;-59
2023/07/25 03:34:20;;;;;;;9.68;4.40;;;;;;;28.46;46.85;98613.37;4485235;32;34042;-60
2023/07/25 03:36:47;;;;;;;8.10;4.12;;;;;;;28.37;47.15;98623.34;4485571;32;33897;-60
2023/07/25 03:39:15;;;;;;;8.70;4.15;;;;;;;28.27;47.20;98618.75;4484982;32;34075;-59
2023/07/25 03:41:42;;;;;;;8.18;3.83;;;;;;;28.27;47.03;98612.44;4485251;32;34278;-59
2023/07/25 03:44:12;;;;;;;9.15;3.55;;;;;;;28.27;46.95;98601.47;4485434;32;33930;-60
2023/07/25 03:46:40;;;;;;;8.45;3.67;;;;;;;28.27;46.84;98595.97;4483785;32;33569;-60
2023/07/25 03:49:07;;;;;;;11.07;4.10;;;;;;;28.30;46.81;98584.41;4485129;32;34044;-61
2023/07/25 03:51:36;;;;;;;8.98;4.32;;;;;;;28.31;46.70;98588.81;4485109;32;34459;-60
2023/07/25 03:54:05;;;;;;;9.13;3.62;;;;;;;28.31;46.78;98583.31;4485008;32;33815;-60
2023/07/25 03:56:32;;;;;;;9.13;4.30;;;;;;;28.32;46.73;98574.00;4484994;32;34662;-60
2023/07/25 03:59:00;;;;;;;8.52;4.00;;;;;;;28.32;46.68;98593.19;4485141;32;33939;-60
2023/07/25 04:01:28;;;;;;;7.82;3.97;;;;;;;28.31;46.66;98584.13;4484991;32;34375;-60
2023/07/25 04:03:56;;;;;;;9.63;3.97;;;;;;;28.32;46.74;98604.16;4484988;32;34056;-61
2023/07/25 04:06:23;;;;;;;9.55;4.28;;;;;;;28.32;46.76;98607.72;4485048;32;34117;-60
2023/07/25 04:08:51;;;;;;;9.15;4.28;;;;;;;28.32;46.75;98604.97;4486848;31;34102;-60
2023/07/25 04:11:19;;;;;;;7.97;4.12;;;;;;;28.34;46.81;98607.41;4493641;31;33202;-59
2023/07/25 04:13:46;;;;;;;8.85;3.90;;;;;;;28.34;46.89;98588.22;4485010;32;33590;-61
2023/07/25 04:16:14;;;;;;;12.37;4.37;;;;;;;28.36;46.81;98594.28;4494881;31;34780;-59
2023/07/25 04:18:41;;;;;;;9.27;4.30;;;;;;;28.36;46.77;98597.03;4500631;31;34191;-60
2023/07/25 04:21:09;;;;;;;10.32;3.87;;;;;;;28.37;46.75;98604.16;4500759;31;34290;-59
2023/07/25 04:23:36;;;;;;;9.07;4.37;;;;;;;28.38;46.74;98594.81;4500672;31;33736;-59
2023/07/25 04:26:04;;;;;;;10.27;4.15;;;;;;;28.38;46.75;98581.91;4500726;31;34424;-59
2023/07/25 04:28:32;;;;;;;8.00;4.28;;;;;;;28.38;46.72;98579.16;4489421;31;34355;-57
2023/07/25 04:30:59;;;;;;;10.13;4.25;;;;;;;28.39;46.75;98579.97;4495945;31;33401;-57
2023/07/25 04:33:27;;;;;;;8.85;3.45;;;;;;;28.40;46.74;98593.41;4500706;31;33931;-57
2023/07/25 04:35:55;;;;;;;6.12;3.42;;;;;;;28.40;46.67;98578.88;4500905;31;34233;-58
2023/07/25 04:38:22;;;;;;;7.82;4.20;;;;;;;28.39;46.61;98580.78;4500368;31;33812;-58
2023/07/25 04:40:50;;;;;;;8.68;4.40;;;;;;;28.41;46.76;98594.22;4495457;31;33742;-60
2023/07/25 04:43:17;;;;;;;11.57;4.20;;;;;;;28.41;46.72;98603.28;4484731;32;33339;-60
2023/07/25 04:45:45;;;;;;;9.75;4.10;;;;;;;28.42;46.71;98604.09;4491634;31;33890;-60
2023/07/25 04:48:21;;;;;;;7.95;4.05;;;;;;;28.43;46.70;98602.97;4500544;31;34882;-60
2023/07/25 04:50:48;;;;;;;8.20;3.80;;;;;;;28.43;46.59;98592.00;4500407;31;33424;-61
2023/07/25 04:53:16;;;;;;;7.90;4.18;;;;;;;28.44;46.65;98588.16;4500550;31;34068;-60
2023/07/25 04:55:44;;;;;;;7.82;3.92;;;;;;;28.42;46.82;98582.16;4500489;31;34193;-60
2023/07/25 04:58:11;;;;;;;8.10;4.30;;;;;;;28.39;46.92;98569.81;4491495;31;33583;-58
2023/07/25 05:00:39;;;;;;;8.68;4.47;;;;;;;28.39;46.82;98572.56;4484649;32;33821;-58
2023/07/25 05:03:09;;;;;;;7.60;3.75;;;;;;;28.40;46.72;98571.47;4484637;31;33952;-57
2023/07/25 05:05:36;;;;;;;9.00;3.72;;;;;;;28.41;46.72;98566.78;4490671;31;34730;-56
2023/07/25 05:08:04;;;;;;;8.13;3.95;;;;;;;28.41;46.78;98547.59;4484622;32;33950;-57
2023/07/25 05:10:32;;;;;;;10.93;4.80;;;;;;;28.39;46.95;98528.66;4484630;31;34364;-60
2023/07/25 05:12:59;;;;;;;8.18;3.62;;;;;;;28.38;47.43;98527.03;4484294;32;33804;-52
2023/07/25 05:15:26;;;;;;;8.30;4.65;;;;;;;28.37;47.26;98536.38;4484597;32;35288;-59
2023/07/25 05:17:54;;;;;;;10.23;4.00;;;;;;;28.35;47.28;98549.56;4484470;32;33807;-57
2023/07/25 05:20:22;;;;;;;9.77;4.45;;;;;;;28.33;47.48;98546.25;4484337;32;33522;-58
2023/07/25 05:22:49;;;;;;;12.48;5.35;;;;;;;28.32;47.51;98536.41;4484792;32;33831;-59
2023/07/25 05:25:17;;;;;;;8.05;4.28;;;;;;;28.33;47.40;98532.53;4484487;32;34745;-58
2023/07/25 05:27:44;;;;;;;8.60;4.45;;;;;;;28.34;47.28;98527.88;4484356;32;34849;-59
2023/07/25 05:30:12;;;;;;;9.65;4.50;;;;;;;28.33;47.30;98532.53;4491243;31;33564;-58
2023/07/25 05:32:40;;;;;;;7.72;4.32;;;;;;;28.35;47.21;98532.28;4500016;31;34684;-56
2023/07/25 05:35:07;;;;;;;10.35;4.32;;;;;;;28.36;47.38;98533.94;4500079;31;34651;-59
2023/07/25 05:37:37;;;;;;;10.98;4.55;;;;;;;28.34;47.54;98528.72;4500371;31;34072;-59
2023/07/25 05:40:05;;;;;;;9.97;4.40;;;;;;;28.34;47.58;98530.59;4500231;31;34493;-57
2023/07/25 05:42:33;;;;;;;9.40;4.45;;;;;;;28.34;47.67;98536.09;4498932;31;33684;-59
2023/07/25 05:45:00;;;;;;;8.00;5.15;;;;;;;28.32;47.72;98549.28;4500137;31;33898;-58
2023/07/25 05:47:29;;;;;;;9.35;4.70;;;;;;;28.31;47.88;98545.75;4498788;31;34946;-58
2023/07/25 05:49:57;;;;;;;8.18;5.03;;;;;;;28.31;47.84;98544.91;4500184;31;34690;-58
2023/07/25 05:52:25;;;;;;;9.15;4.70;;;;;;;28.30;48.09;98557.78;4500130;31;34768;-60
2023/07/25 05:54:53;;;;;;;11.55;5.12;;;;;;;28.28;47.82;98571.00;4499955;31;35239;-60
2023/07/25 05:57:21;;;;;;;12.30;5.18;;;;;;;28.29;47.65;98586.34;4500083;31;34328;-60
2023/07/25 05:59:48;;;;;;;9.43;5.03;;;;;;;28.30;47.59;98579.75;4499882;31;33778;-60
2023/07/25 06:02:16;;;;;;;9.27;4.47;;;;;;;28.30;47.61;98576.19;4499829;31;33864;-61
2023/07/25 06:04:46;;;;;;;10.38;4.95;;;;;;;28.32;47.75;98579.47;4499970;31;34897;-59
2023/07/25 06:07:15;;;;;;;11.63;4.78;;;;;;;28.31;47.72;98573.16;4499977;31;34738;-57
2023/07/25 06:09:42;;;;;;;11.00;4.60;;;;;;;28.35;47.50;98568.78;4498593;31;33409;-60
2023/07/25 06:12:10;;;;;;;9.07;4.60;;;;;;;28.38;47.53;98561.88;4499874;31;33474;-60
2023/07/25 06:14:37;;;;;;;10.45;4.95;;;;;;;28.39;47.55;98552.53;4498589;31;34520;-61
2023/07/25 06:17:05;;;;;;;9.48;4.70;;;;;;;28.39;47.68;98544.31;4499712;31;34775;-60
2023/07/25 06:19:33;;;;;;;9.18;4.20;;;;;;;28.41;47.65;98551.16;4499797;31;34793;-59
2023/07/25 06:22:00;;;;;;;11.12;5.07;;;;;;;28.43;47.65;98545.37;4499719;31;33796;-56
2023/07/25 06:24:28;;;;;;;11.15;6.22;;;;;;;28.44;47.56;98545.06;4499681;31;33990;-56
2023/07/25 06:26:56;;;;;;;15.88;5.50;;;;;;;28.44;47.67;98536.84;4499889;31;33974;-56
2023/07/25 06:29:23;;;;;;;10.40;5.60;;;;;;;28.46;47.75;98539.31;4494453;31;34480;-59
2023/07/25 06:31:51;;;;;;;12.50;5.80;;;;;;;28.47;47.81;98529.97;4499209;31;34599;-58
2023/07/25 06:34:18;;;;;;;9.65;5.20;;;;;;;28.50;47.98;98529.37;4498397;31;33646;-56
2023/07/25 06:36:46;;;;;;;9.43;4.82;;;;;;;28.52;47.93;98518.12;4499612;31;33375;-58
2023/07/25 06:39:13;;;;;;;13.80;5.50;;;;;;;28.51;47.74;98509.06;4499240;31;34705;-57
2023/07/25 06:41:41;;;;;;;10.10;4.78;;;;;;;28.52;47.44;98505.22;4499423;31;33775;-58
2023/07/25 06:44:12;;;;;;;10.48;3.90;;;;;;;28.52;47.23;98510.69;4499458;31;33930;-59
2023/07/25 06:46:42;;;;;;;9.73;4.37;;;;;;;28.53;47.12;98508.75;4499621;31;34736;-58
2023/07/25 06:49:09;;;;;;;9.70;4.53;;;;;;;28.55;46.88;98499.16;4499361;31;33545;-60
2023/07/25 06:51:37;;;;;;;11.27;4.70;;;;;;;28.53;46.50;98495.84;4499379;31;34674;-58
2023/07/25 06:54:06;;;;;;;9.00;4.20;;;;;;;28.53;46.27;98493.13;4500274;31;34823;-58
2023/07/25 06:56:33;;;;;;;8.40;4.32;;;;;;;28.53;46.46;98484.87;4501300;31;33736;-60
2023/07/25 06:59:01;;;;;;;9.93;4.05;;;;;;;28.55;46.45;98473.62;4501225;31;34098;-58
2023/07/25 07:01:29;;;;;;;11.30;4.30;;;;;;;28.56;46.19;98478.81;4500931;31;34527;-54
2023/07/25 07:03:57;;;;;;;8.95;4.53;;;;;;;28.55;46.02;98474.44;4498471;31;34853;-57
2023/07/25 07:06:24;;;;;;;7.90;4.37;;;;;;;28.55;46.17;98470.88;4492186;31;34061;-58
2023/07/25 07:08:52;;;;;;;7.72;4.30;;;;;;;28.55;46.24;98452.50;4490053;31;34160;-60
2023/07/25 07:11:19;;;;;;;8.98;4.35;;;;;;;28.55;46.25;98449.75;4489265;31;34772;-59
2023/07/25 07:13:47;;;;;;;8.50;4.72;;;;;;;28.56;46.23;98434.91;4485199;32;35487;-59
2023/07/25 07:16:15;;;;;;;9.55;4.15;;;;;;;28.56;46.22;98439.59;4483827;32;34745;-60
2023/07/25 07:18:43;;;;;;;8.68;4.37;;;;;;;28.58;46.20;98440.09;4485327;32;34809;-61
2023/07/25 07:21:10;;;;;;;7.87;3.58;;;;;;;28.59;46.12;98428.03;4487895;31;33651;-59
2023/07/25 07:23:38;;;;;;;8.73;4.40;;;;;;;28.59;46.08;98426.09;4490959;31;33715;-53
2023/07/25 07:26:06;;;;;;;8.45;4.18;;;;;;;28.61;46.25;98425.81;4485238;32;34393;-56
2023/07/25 07:28:33;;;;;;;8.40;4.32;;;;;;;28.63;46.26;98421.66;4486673;31;34305;-59
2023/07/25 07:31:01;;;;;;;10.27;4.80;;;;;;;28.64;46.24;98415.06;4491023;31;33844;-59
2023/07/25 07:33:29;;;;;;;9.02;4.15;;;;;;;28.65;46.22;98418.63;4485156;32;33492;-58
2023/07/25 07:35:57;;;;;;;9.00;4.12;;;;;;;28.65;46.26;98410.38;4484987;31;34077;-54
2023/07/25 07:38:25;;;;;;;9.10;4.60;;;;;;;28.67;45.88;98411.72;4485191;32;33684;-51
2023/07/25 07:40:52;;;;;;;8.40;3.70;;;;;;;28.67;45.71;98403.47;4485182;32;33855;-55
2023/07/25 07:43:20;;;;;;;8.05;4.25;;;;;;;28.69;45.70;98405.94;4485146;32;34005;-56
2023/07/25 07:45:48;;;;;;;9.50;4.22;;;;;;;28.70;45.69;98416.63;4485237;32;34139;-59
2023/07/25 07:48:33;;;;;;;7.55;4.15;;;;;;;28.71;45.72;98429.22;4473049;32;34375;-59
2023/07/25 07:51:04;;;;;;;8.65;4.05;;;;;;;28.71;45.76;98421.00;4485176;32;33307;-56
2023/07/25 07:53:32;;;;;;;7.22;3.58;;;;;;;28.71;45.82;98423.72;4485181;32;33692;-58
2023/07/25 07:56:03;;;;;;;8.10;3.92;;;;;;;28.71;45.85;98422.91;4484801;32;34403;-56
2023/07/25 07:58:31;;;;;;;9.00;4.30;;;;;;;28.70;45.95;98422.09;4485020;32;33536;-56
2023/07/25 08:00:59;;;;;;;8.68;4.07;;;;;;;28.72;45.99;98419.91;4485218;32;33913;-60
2023/07/25 08:03:45;;;;;;;8.25;4.25;;;;;;;28.73;46.02;98424.28;4484820;32;34808;-57
2023/07/25 08:06:13;;;;;;;7.40;4.12;;;;;;;28.75;46.01;98432.19;4484369;32;33686;-57
2023/07/25 08:08:41;;;;;;;10.05;4.57;;;;;;;28.72;46.07;98424.53;4484758;32;33633;-60
2023/07/25 08:11:08;;;;;;;9.65;4.18;;;;;;;28.71;46.11;98426.47;4484791;32;33306;-61
2023/07/25 08:13:36;;;;;;;7.15;4.03;;;;;;;28.73;46.14;98428.94;4484744;32;34854;-60
2023/07/25 08:16:04;;;;;;;9.13;4.07;;;;;;;28.72;46.14;98424.53;4484884;32;34170;-60
2023/07/25 08:18:32;;;;;;;7.40;4.15;;;;;;;28.73;46.13;98415.22;4484735;32;33554;-58
2023/07/25 08:21:00;;;;;;;9.30;4.18;;;;;;;28.72;46.14;98408.91;4484732;32;34409;-61
2023/07/25 08:23:28;;;;;;;8.93;3.80;;;;;;;28.72;46.14;98405.34;4470389;32;33809;-58
2023/07/25 08:25:57;;;;;;;7.68;3.97;;;;;;;28.72;46.08;98395.19;4484872;32;34035;-60
2023/07/25 08:28:25;;;;;;;7.53;3.62;;;;;;;28.73;45.97;98391.34;4484608;32;34457;-59
2023/07/25 08:31:00;;;;;;;7.70;3.90;;;;;;;28.72;46.02;98384.22;4495260;31;34327;-59
2023/07/25 08:33:31;;;;;;;10.70;3.95;;;;;;;28.73;46.02;98382.28;4486295;31;33882;-60
2023/07/25 08:35:59;;;;;;;8.85;4.32;;;;;;;28.71;46.00;98385.31;4499071;31;34504;-61
2023/07/25 08:38:27;;;;;;;8.43;4.62;;;;;;;28.72;45.97;98388.88;4500671;31;34131;-60
2023/07/25 08:41:17;;;;;;;15.57;4.18;;;;;;;28.72;45.94;98383.38;4500294;31;33902;-60
2023/07/25 08:43:45;;;;;;;;;;;;;;;28.73;45.91;98394.06;4488207;31;34879;-60
2023/07/25 08:46:14;;;;;;;13.10;3.87;;;;;;;28.84;45.70;98391.19;4500388;31;34982;-58
2023/07/25 08:48:41;;;;;;;10.75;4.10;;;;;;;28.77;45.91;98393.47;4486196;31;34367;-60
2023/07/25 08:51:20;;;;;;;13.18;3.97;;;;;;;28.73;45.98;98385.84;4499082;31;33837;-58
2023/07/25 08:54:19;;;;;;;10.80;4.37;;;;;;;28.75;46.04;98398.44;4500239;31;33990;-60
2023/07/25 08:56:48;;;;;;;8.77;3.90;;;;;;;28.77;46.07;98421.72;4499119;31;33674;-57
2023/07/25 08:59:16;;;;;;;11.23;3.83;;;;;;;28.75;46.17;98429.47;4500063;31;33266;-56
2023/07/25 09:01:44;;;;;;;10.55;3.83;;;;;;;28.74;46.29;98436.06;4500126;31;33948;-57
2023/07/25 09:04:12;;;;;;;7.68;3.97;;;;;;;28.75;46.35;98443.19;4500266;31;34154;-60
2023/07/25 09:06:40;;;;;;;9.70;3.92;;;;;;;28.76;46.47;98501.63;4496386;31;34164;-61
2023/07/25 09:09:07;;;;;;;9.13;3.67;;;;;;;28.77;46.53;98564.47;4492964;31;33455;-59
2023/07/25 09:11:35;;;;;;;9.82;4.20;;;;;;;28.77;46.61;98700.91;4490387;31;33416;-60
2023/07/25 09:14:03;;;;;;;10.25;3.80;;;;;;;28.78;46.55;98743.75;4498936;31;33983;-62
2023/07/25 09:16:31;;;;;;;10.00;3.80;;;;;;;28.78;46.82;98795.91;4500462;31;34017;-59
2023/07/25 09:18:58;;;;;;;8.40;3.30;;;;;;;28.79;47.16;98761.84;4500085;31;34442;-59
2023/07/25 09:21:26;;;;;;;12.65;4.25;;;;;;;28.79;47.37;98737.97;4498480;31;33889;-60
2023/07/25 09:23:54;;;;;;;12.32;4.18;;;;;;;28.78;47.49;98699.84;4494571;31;33883;-59
2023/07/25 09:26:27;;;;;;;12.37;3.92;;;;;;;28.78;47.87;98697.09;4493458;31;35382;-59
2023/07/25 09:28:56;;;;;;;12.05;4.35;;;;;;;28.76;48.04;98685.56;4484420;32;33497;-59
2023/07/25 09:31:27;;;;;;;13.68;4.25;;;;;;;28.74;48.36;98694.09;4497724;31;34053;-58
2023/07/25 09:33:56;;;;;;;10.57;4.22;;;;;;;28.72;48.57;98691.66;4499888;31;33672;-55
2023/07/25 09:36:24;;;;;;;12.32;4.72;;;;;;;28.70;48.93;98693.03;4500273;31;34253;-59
2023/07/25 09:38:54;;;;;;;12.25;5.12;;;;;;;28.66;48.81;98676.31;4480100;31;34415;-60
2023/07/25 09:41:22;;;;;;;18.17;5.30;;;;;;;28.62;49.29;98656.03;4490080;31;34355;-67
2023/07/25 09:43:50;;;;;;;11.93;5.12;;;;;;;28.58;49.67;98676.09;4482500;32;33906;-66
2023/07/25 09:46:18;;;;;;;13.90;5.03;;;;;;;28.56;49.12;98673.66;4483202;31;34100;-66
2023/07/25 09:48:47;;;;;;;10.68;4.75;;;;;;;28.55;48.90;98650.06;4499913;31;33843;-69
2023/07/25 09:51:15;;;;;;;12.55;5.60;;;;;;;28.54;48.77;98614.66;4486012;31;34366;-61
2023/07/25 09:53:44;;;;;;;12.57;5.57;;;;;;;28.56;48.63;98604.25;4484007;31;33894;-63
2023/07/25 09:56:11;;;;;;;9.40;5.05;;;;;;;28.54;48.66;98568.87;4484513;31;34030;-64
2023/07/25 09:58:39;;;;;;;9.50;5.32;;;;;;;28.53;48.66;98539.75;4485956;31;33740;-64
2023/07/25 10:01:27;;;;;;;9.25;4.80;;;;;;;28.52;48.53;98532.66;4499418;31;33637;-65
2023/07/25 10:03:55;;;;;;;11.57;4.90;;;;;;;28.53;48.40;98549.94;4485870;31;33695;-61
2023/07/25 10:06:23;;;;;;;10.50;5.47;;;;;;;28.54;48.35;98544.16;4475944;32;34281;-63
2023/07/25 10:08:50;;;;;;;13.23;5.57;;;;;;;28.55;48.29;98548.53;4498338;31;32967;-63
2023/07/25 10:11:18;;;;;;;10.93;5.40;;;;;;;28.55;48.31;98565.00;4498649;31;33995;-65
2023/07/25 10:13:46;;;;;;;8.27;4.32;;;;;;;28.57;48.21;98594.88;4485832;31;33983;-63
2023/07/25 10:16:14;;;;;;;9.10;4.85;;;;;;;28.58;48.14;98607.50;4485480;31;33274;-63
2023/07/25 10:18:42;;;;;;;11.50;4.97;;;;;;;28.58;48.03;98630.28;4498767;31;33382;-63
2023/07/25 10:21:11;;;;;;;12.48;4.78;;;;;;;28.60;48.10;98647.28;4498460;31;33714;-63
2023/07/25 10:23:39;;;;;;;11.85;5.25;;;;;;;28.61;48.03;98659.87;4485518;31;33770;-64
2023/07/25 10:26:11;;;;;;;10.35;4.93;;;;;;;28.62;48.13;98647.78;4497109;31;34045;-65
2023/07/25 10:28:39;;;;;;;11.20;5.05;;;;;;;28.61;48.24;98629.69;4498815;31;33578;-66
2023/07/25 10:31:07;;;;;;;11.32;4.85;;;;;;;28.61;48.21;98607.75;4498280;31;34255;-64
2023/07/25 10:33:38;;;;;;;8.35;4.50;;;;;;;28.61;48.24;98602.25;4499706;31;33454;-68
2023/07/25 10:36:09;;;;;;;9.43;4.70;;;;;;;28.60;48.35;98577.84;4499752;31;34129;-70
2023/07/25 10:38:40;;;;;;;11.32;4.95;;;;;;;28.59;48.34;98560.56;4498350;31;34293;-67
2023/07/25 10:41:08;;;;;;;9.90;4.62;;;;;;;28.60;48.47;98555.91;4499394;31;33837;-62
2023/07/25 10:43:48;;;;;;;8.95;4.93;;;;;;;28.60;48.48;98545.75;4498751;31;34056;-71
2023/07/25 10:46:21;;;;;;;12.63;4.93;;;;;;;28.63;48.82;98525.97;4488093;31;34928;-72
2023/07/25 10:48:52;;;;;;;10.13;4.30;;;;;;;28.62;48.58;98516.06;4513247;31;34182;-71
2023/07/25 10:51:21;;;;;;;11.60;4.70;;;;;;;28.63;48.29;98512.22;4504412;31;34680;-71
2023/07/25 10:54:04;;;;;;;10.02;4.68;;;;;;;28.65;48.26;98514.69;4484592;31;34547;-61
2023/07/25 10:56:32;;;;;;;10.50;4.50;;;;;;;28.67;48.51;98513.25;4498888;31;34474;-71
2023/07/25 10:59:04;;;;;;;10.95;5.07;;;;;;;28.66;48.36;98521.78;4499150;31;33574;-66
2023/07/25 11:01:32;;;;;;;8.90;4.40;;;;;;;28.67;48.79;98524.25;4471801;31;33654;-66
2023/07/25 11:04:39;;;;;;;9.75;4.37;;;;;;;28.68;48.64;98528.63;4497817;31;33594;-61
2023/07/25 11:07:09;;;;;;;9.50;4.50;;;;;;;28.74;48.24;98534.88;4433840;32;33690;-60
2023/07/25 11:09:41;;;;;;;7.22;3.85;;;;;;;28.70;48.62;98525.59;4433898;32;33467;-70
2023/07/25 11:12:10;;;;;;;10.13;4.70;;;;;;;28.70;48.51;98504.44;4468244;31;33939;-63
2023/07/25 11:14:42;;;;;;;9.23;4.37;;;;;;;28.71;48.58;98470.41;4498493;31;34849;-68
2023/07/25 11:17:10;;;;;;;8.57;4.68;;;;;;;28.71;48.19;98437.47;4498208;31;34852;-66
2023/07/25 11:19:38;;;;;;;8.30;4.28;;;;;;;28.71;48.34;98442.94;4483195;31;33557;-65
2023/07/25 11:22:10;;;;;;;9.23;4.68;;;;;;;28.74;48.44;98433.31;4497220;31;33713;-65
2023/07/25 11:24:46;;;;;;;6.53;3.70;;;;;;;28.74;48.08;98414.09;4492610;31;34785;-61
2023/07/25 11:27:14;;;;;;;13.85;4.70;;;;;;;28.75;47.91;98417.66;4498112;31;34467;-68
2023/07/25 11:29:41;;;;;;;8.52;4.55;;;;;;;28.75;48.33;98423.97;4496893;31;33530;-62
2023/07/25 11:32:09;;;;;;;8.48;4.97;;;;;;;28.76;48.58;98424.78;4498297;31;33925;-63
2023/07/25 11:34:36;;;;;;;8.32;4.53;;;;;;;28.77;48.53;98409.94;4498204;31;33914;-64
2023/07/25 11:37:11;;;;;;;8.63;4.50;;;;;;;28.77;48.51;98412.69;4496906;31;34328;-71